Time;durP1;ratioP1;P1;durP2;ratioP2;P2;SDS_P1;SDS_P2;PMS_P1;PMS_P2;Temp;Humidity;BMP_temperature;BMP_pressure;BME280_temperature;BME280_humidity;BME280_pressure;Samples;Min_cycle;Max_cycle;Signal;HPM_P1;HPM_P2
2022/01/19 00:01:33;;;;;;;12.35;3.70;;;26.10;55.30;;;;;;5027027;28;20295;-41
2022/01/19 00:04:03;;;;;;;8.60;3.53;;;26.10;55.30;;;;;;5028904;28;20303;-42
2022/01/19 00:06:36;;;;;;;9.93;3.67;;;26.10;55.50;;;;;;5028060;28;20311;-43
2022/01/19 00:09:06;;;;;;;7.28;3.30;;;26.20;55.20;;;;;;5029461;28;20211;-41
2022/01/19 00:11:37;;;;;;;11.00;3.78;;;26.20;55.30;;;;;;5026005;28;20288;-42
2022/01/19 00:14:07;;;;;;;7.93;3.60;;;26.20;55.20;;;;;;5027676;28;20775;-42
2022/01/19 00:16:38;;;;;;;9.05;3.00;;;26.20;55.20;;;;;;5027113;28;20291;-41
2022/01/19 00:19:08;;;;;;;7.43;3.28;;;26.20;55.20;;;;;;5027670;28;20291;-42
2022/01/19 00:21:41;;;;;;;7.38;3.45;;;26.30;55.30;;;;;;5027920;28;20286;-42
2022/01/19 00:24:11;;;;;;;6.18;3.17;;;26.30;55.30;;;;;;5026367;28;20222;-41
2022/01/19 00:26:42;;;;;;;6.70;3.17;;;26.30;55.30;;;;;;5028965;28;20660;-42
2022/01/19 00:29:12;;;;;;;10.43;3.63;;;26.30;55.30;;;;;;5027213;28;20283;-43
2022/01/19 00:31:43;;;;;;;8.98;3.35;;;26.40;55.40;;;;;;5026646;28;20292;-42
2022/01/19 00:34:13;;;;;;;8.60;3.58;;;26.40;55.40;;;;;;5028997;28;20300;-42
2022/01/19 00:36:45;;;;;;;8.30;3.63;;;26.40;55.30;;;;;;5027977;28;20279;-42
2022/01/19 00:39:16;;;;;;;8.85;3.40;;;26.50;55.30;;;;;;5025721;28;20668;-42
2022/01/19 00:41:46;;;;;;;5.88;2.90;;;26.50;55.30;;;;;;5032407;28;20200;-42
2022/01/19 00:44:17;;;;;;;5.93;2.88;;;26.50;55.20;;;;;;5027876;28;20315;-42
2022/01/19 00:46:47;;;;;;;6.07;2.97;;;26.50;55.20;;;;;;5031989;28;20278;-42
2022/01/19 00:49:18;;;;;;;8.60;3.70;;;26.60;55.20;;;;;;5028274;28;20195;-42
2022/01/19 00:51:50;;;;;;;4.65;2.83;;;26.60;55.10;;;;;;5027803;28;20225;-41
2022/01/19 00:54:20;;;;;;;7.43;3.25;;;26.60;55.00;;;;;;5028231;28;20315;-42
2022/01/19 00:56:51;;;;;;;5.60;3.40;;;26.60;55.00;;;;;;5029939;28;20204;-42
2022/01/19 00:59:21;;;;;;;6.13;3.05;;;26.70;55.10;;;;;;5043844;28;20207;-44
2022/01/19 01:01:52;;;;;;;7.65;3.20;;;26.70;55.20;;;;;;5033796;28;20288;-47
2022/01/19 01:04:22;;;;;;;6.68;3.33;;;26.70;55.20;;;;;;5041089;28;20308;-49
2022/01/19 01:06:55;;;;;;;8.43;3.80;;;26.80;55.20;;;;;;5042524;28;20278;-51
2022/01/19 01:09:25;;;;;;;9.20;3.47;;;26.80;55.20;;;;;;5036046;28;20253;-42
2022/01/19 01:12:09;;;;;;;6.90;3.28;;;26.90;55.30;;;;;;5032910;28;20634;-47
2022/01/19 01:20:23;;;;;;;6.28;3.13;;;27.00;55.30;;;;;;4982323;28;20255;-50
2022/01/19 01:22:56;;;;;;;6.80;3.22;;;27.00;55.10;;;;;;5031008;28;20287;-44
2022/01/19 01:25:26;;;;;;;6.65;3.30;;;27.10;55.20;;;;;;5030353;28;20255;-43
2022/01/19 01:27:57;;;;;;;5.38;2.60;;;27.10;55.20;;;;;;5047304;28;20278;-42
2022/01/19 01:30:27;;;;;;;5.22;2.65;;;27.20;55.30;;;;;;5035802;28;20246;-41
2022/01/19 01:32:58;;;;;;;5.80;3.00;;;27.20;55.00;;;;;;5041149;28;20275;-41
2022/01/19 01:35:28;;;;;;;6.75;3.22;;;27.30;54.80;;;;;;5030347;28;20232;-43
2022/01/19 01:38:01;;;;;;;5.07;2.60;;;27.30;54.80;;;;;;5031013;28;20294;-42
2022/01/19 01:40:34;;;;;;;4.97;2.53;;;27.30;54.60;;;;;;5029841;28;20299;-41
2022/01/19 01:43:06;;;;;;;3.88;2.60;;;27.40;54.70;;;;;;5030309;28;20202;-42
2022/01/19 01:45:39;;;;;;;5.55;2.90;;;27.50;54.90;;;;;;5028262;28;20319;-42
2022/01/19 01:48:13;;;;;;;5.28;2.80;;;27.50;55.00;;;;;;5019313;28;20197;-43
2022/01/19 01:53:33;;;;;;;5.00;2.60;;;27.60;55.20;;;;;;5023456;28;20308;-42
2022/01/19 01:56:07;;;;;;;3.67;2.53;;;27.60;55.20;;;;;;5028690;28;20280;-42
2022/01/19 01:58:38;;;;;;;4.25;2.72;;;27.70;55.30;;;;;;5034435;28;20234;-41
2022/01/19 02:01:10;;;;;;;4.65;2.50;;;27.70;55.10;;;;;;5039449;28;20295;-42
2022/01/19 02:03:41;;;;;;;5.93;2.53;;;27.70;54.80;;;;;;5044668;28;20250;-42
2022/01/19 02:09:08;;;;;;;4.47;2.50;;;27.80;54.60;;;;;;5030135;28;20301;-41
2022/01/19 02:23:17;;;;;;;5.07;2.55;;;28.10;54.20;;;;;;5023267;28;20580;-42
2022/01/19 02:25:49;;;;;;;3.88;2.22;;;28.20;54.00;;;;;;5018540;28;20256;-42
2022/01/19 02:40:09;;;;;;;3.47;1.67;;;28.40;53.00;;;;;;5027105;28;20306;-46
2022/01/19 02:42:38;;;;;;;5.82;1.40;;;28.50;51.30;;;;;;5024601;28;20195;-52
2022/01/19 02:50:44;;;;;;;3.30;0.82;;;28.50;49.10;;;;;;5029284;28;20222;-42
2022/01/19 02:53:16;;;;;;;4.20;1.15;;;28.50;48.20;;;;;;5028837;28;20286;-42
2022/01/19 02:55:46;;;;;;;1.27;0.70;;;28.60;48.10;;;;;;5029782;28;20228;-45
2022/01/19 02:58:21;;;;;;;0.90;0.35;;;28.60;47.30;;;;;;5029794;28;20234;-42
2022/01/19 03:09:21;;;;;;;2.90;0.77;;;28.70;46.50;;;;;;5032259;28;20205;-53
2022/01/19 03:11:51;;;;;;;1.63;0.50;;;28.70;46.60;;;;;;5068813;28;20306;-47
2022/01/19 03:14:22;;;;;;;1.25;0.47;;;28.70;46.50;;;;;;5068043;28;20306;-46
2022/01/19 03:16:53;;;;;;;1.23;0.45;;;28.70;46.30;;;;;;5068838;28;20282;-49
2022/01/19 03:19:26;;;;;;;2.13;0.40;;;28.80;46.10;;;;;;5067993;28;20631;-47
2022/01/19 03:21:56;;;;;;;1.38;0.70;;;28.80;45.80;;;;;;5068119;28;20211;-43
2022/01/19 03:24:37;;;;;;;3.42;0.90;;;28.80;45.80;;;;;;5068651;28;20306;-46
2022/01/19 03:27:09;;;;;;;8.02;1.48;;;28.80;45.60;;;;;;5067590;28;20290;-43
2022/01/19 03:29:39;;;;;;;5.70;1.00;;;28.80;45.20;;;;;;5067549;28;20718;-44
2022/01/19 03:32:11;;;;;;;2.40;0.90;;;28.80;45.20;;;;;;5068370;28;20221;-47
2022/01/19 03:34:42;;;;;;;6.82;0.93;;;28.80;45.40;;;;;;5066914;28;20253;-47
2022/01/19 03:37:13;;;;;;;4.90;1.02;;;28.90;45.40;;;;;;5069661;28;20296;-44
2022/01/19 03:39:45;;;;;;;5.05;0.90;;;28.90;45.30;;;;;;5067115;28;20633;-42
2022/01/19 03:42:16;;;;;;;3.35;0.75;;;28.90;46.00;;;;;;5068259;28;20298;-45
2022/01/19 03:44:46;;;;;;;4.72;1.15;;;28.90;46.40;;;;;;5067706;28;20753;-44
2022/01/19 03:47:17;;;;;;;4.45;0.95;;;28.90;46.60;;;;;;5066025;28;20250;-47
2022/01/19 03:49:48;;;;;;;4.00;0.80;;;29.00;46.80;;;;;;5068403;28;20285;-45
2022/01/19 03:52:19;;;;;;;2.83;0.80;;;29.00;46.90;;;;;;5068520;28;20282;-45
2022/01/19 03:54:51;;;;;;;4.60;1.00;;;29.00;47.00;;;;;;5067050;28;20341;-48
2022/01/19 03:57:21;;;;;;;2.67;0.98;;;29.00;46.40;;;;;;5068426;28;20277;-44
2022/01/19 03:59:52;;;;;;;3.60;0.80;;;29.00;46.70;;;;;;5067556;28;20191;-49
2022/01/19 04:02:22;;;;;;;3.97;0.70;;;29.00;46.80;;;;;;5066835;28;20782;-47
2022/01/19 04:04:57;;;;;;;1.30;0.57;;;29.00;46.70;;;;;;5068405;28;20246;-49
2022/01/19 04:07:28;;;;;;;2.78;0.70;;;29.00;46.60;;;;;;5066751;28;20305;-48
2022/01/19 04:10:00;;;;;;;2.55;0.90;;;29.00;46.40;;;;;;5067070;28;20285;-46
2022/01/19 04:12:43;;;;;;;2.72;0.90;;;29.00;46.30;;;;;;5066248;28;20286;-44
2022/01/19 04:15:14;;;;;;;2.78;0.80;;;29.00;46.00;;;;;;5066752;28;20250;-43
2022/01/19 04:17:50;;;;;;;1.98;0.80;;;29.00;45.80;;;;;;5067448;28;20285;-49
2022/01/19 04:20:23;;;;;;;2.92;0.80;;;28.90;45.70;;;;;;5067099;28;20217;-45
2022/01/19 04:22:53;;;;;;;1.27;0.75;;;28.90;45.60;;;;;;5065528;28;20278;-44
2022/01/19 04:25:26;;;;;;;1.58;0.75;;;28.90;45.40;;;;;;5066920;28;20650;-44
2022/01/19 04:27:56;;;;;;;3.28;0.88;;;28.90;45.40;;;;;;5065886;28;20738;-45
2022/01/19 04:30:29;;;;;;;3.42;1.00;;;28.90;45.50;;;;;;5065972;28;20651;-44
2022/01/19 04:33:07;;;;;;;1.92;0.73;;;28.90;45.50;;;;;;5067416;28;20210;-48
2022/01/19 04:35:49;;;;;;;1.50;0.70;;;28.80;45.80;;;;;;5064629;28;20205;-41
2022/01/19 04:44:35;;;;;;;1.52;0.75;;;28.80;46.30;;;;;;5065430;28;20226;-41
2022/01/19 05:03:55;;;;;;;7.22;2.22;;;28.70;47.60;;;;;;5065823;28;20279;-42
2022/01/19 05:06:25;;;;;;;7.55;2.80;;;28.70;47.80;;;;;;5065507;28;20583;-43
2022/01/19 05:09:06;;;;;;;9.68;2.63;;;28.60;48.20;;;;;;5066123;28;20252;-46
2022/01/19 05:14:24;;;;;;;6.30;2.25;;;28.60;48.70;;;;;;5065739;28;20225;-47
2022/01/19 05:16:55;;;;;;;9.68;2.85;;;28.60;49.20;;;;;;5064910;28;20202;-45
2022/01/19 05:19:25;;;;;;;9.18;3.20;;;28.50;49.40;;;;;;5065498;28;20281;-44
2022/01/19 05:21:56;;;;;;;7.35;2.72;;;28.50;49.70;;;;;;5065831;28;20290;-44
2022/01/19 05:24:26;;;;;;;8.35;2.70;;;28.50;49.80;;;;;;5065080;28;20294;-42
2022/01/19 05:26:57;;;;;;;6.13;2.25;;;28.50;50.10;;;;;;5065140;28;20314;-42
2022/01/19 05:29:29;;;;;;;7.32;2.75;;;28.50;50.30;;;;;;5064865;28;20282;-44
2022/01/19 05:32:03;;;;;;;6.75;2.80;;;28.40;50.60;;;;;;5065183;28;20199;-44
2022/01/19 05:34:33;;;;;;;6.38;2.75;;;28.40;50.80;;;;;;5064067;28;20210;-41
2022/01/19 05:37:04;;;;;;;7.90;3.00;;;28.40;50.90;;;;;;5065218;28;21539;-42
2022/01/19 05:39:34;;;;;;;8.13;2.67;;;28.40;51.00;;;;;;5064252;28;20294;-43
2022/01/19 05:42:05;;;;;;;7.25;2.85;;;28.40;51.20;;;;;;5063440;28;20203;-48
2022/01/19 05:44:37;;;;;;;6.90;2.70;;;28.40;51.20;;;;;;5076719;28;20252;-41
2022/01/19 05:47:08;;;;;;;4.82;2.38;;;28.40;51.30;;;;;;5067209;28;20313;-43
2022/01/19 05:49:39;;;;;;;7.80;2.42;;;28.40;51.30;;;;;;5066637;28;20281;-44
2022/01/19 05:52:10;;;;;;;9.48;2.97;;;28.30;51.30;;;;;;5065913;28;20277;-44
2022/01/19 05:54:40;;;;;;;8.07;2.80;;;28.30;51.30;;;;;;5064448;28;20310;-43
2022/01/19 05:57:11;;;;;;;5.40;2.28;;;28.30;51.40;;;;;;5066531;28;20286;-43
2022/01/19 05:59:44;;;;;;;8.50;2.72;;;28.30;51.40;;;;;;5067200;28;20237;-42
2022/01/19 06:02:16;;;;;;;7.53;2.72;;;28.30;51.40;;;;;;5066078;28;20281;-42
2022/01/19 06:04:46;;;;;;;7.28;2.65;;;28.30;51.50;;;;;;5068895;28;20225;-46
2022/01/19 06:07:17;;;;;;;15.98;5.75;;;28.20;51.40;;;;;;5067200;28;20305;-44
2022/01/19 06:10:00;;;;;;;105.43;52.00;;;28.20;51.50;;;;;;5067347;28;20298;-42
2022/01/19 06:12:31;;;;;;;210.38;105.03;;;28.20;51.50;;;;;;5069302;28;20561;-51
2022/01/19 06:15:04;;;;;;;196.80;81.95;;;28.20;51.60;;;;;;5068058;28;20261;-45
2022/01/19 06:17:35;;;;;;;450.48;173.98;;;28.10;51.60;;;;;;5067370;28;20650;-43
2022/01/19 06:20:06;;;;;;;441.27;159.77;;;28.10;51.70;;;;;;5079250;28;20224;-52
2022/01/19 06:22:36;;;;;;;435.27;150.18;;;28.10;51.80;;;;;;5068928;28;20760;-43
2022/01/19 06:25:07;;;;;;;374.88;132.13;;;28.10;51.70;;;;;;5050622;28;20774;-44
2022/01/19 06:27:38;;;;;;;333.65;120.75;;;28.00;51.60;;;;;;5067514;28;20224;-44
2022/01/19 06:30:11;;;;;;;275.02;97.68;;;28.00;51.60;;;;;;5066753;28;20278;-41
2022/01/19 06:32:42;;;;;;;224.02;87.78;;;28.00;51.50;;;;;;5068166;28;20797;-45
2022/01/19 06:35:13;;;;;;;189.45;71.60;;;28.00;51.50;;;;;;5065857;28;20733;-47
2022/01/19 06:37:43;;;;;;;154.70;57.88;;;28.00;51.50;;;;;;5066534;28;20290;-46
2022/01/19 06:40:16;;;;;;;137.07;51.25;;;27.90;51.40;;;;;;5067926;28;20293;-47
2022/01/19 06:42:47;;;;;;;117.93;45.40;;;28.00;51.40;;;;;;5067114;28;20241;-48
2022/01/19 06:45:19;;;;;;;95.30;38.08;;;27.90;51.40;;;;;;5057275;28;20298;-44
2022/01/19 06:47:50;;;;;;;70.57;29.33;;;27.90;51.20;;;;;;5067084;28;20218;-49
2022/01/19 06:50:20;;;;;;;65.80;27.90;;;27.90;51.20;;;;;;5065975;28;20627;-44
2022/01/19 06:52:51;;;;;;;68.40;25.48;;;27.90;51.10;;;;;;5068523;28;20194;-42
2022/01/19 06:55:22;;;;;;;47.65;20.83;;;27.90;51.10;;;;;;5065077;28;20302;-45
2022/01/19 06:57:52;;;;;;;41.30;17.08;;;27.80;51.00;;;;;;5067429;28;20289;-43
2022/01/19 07:00:25;;;;;;;40.53;15.77;;;27.80;51.00;;;;;;5065877;28;20274;-41
2022/01/19 07:02:55;;;;;;;42.30;16.77;;;27.80;51.10;;;;;;5059958;28;20288;-42
2022/01/19 07:05:26;;;;;;;47.67;20.65;;;27.70;51.00;;;;;;5065865;28;20314;-43
2022/01/19 07:07:57;;;;;;;38.20;16.63;;;27.70;51.10;;;;;;5064551;28;20321;-45
2022/01/19 07:10:31;;;;;;;29.83;15.20;;;27.70;51.10;;;;;;5064398;28;20214;-43
2022/01/19 07:13:01;;;;;;;36.78;17.88;;;27.70;51.20;;;;;;5066029;28;20191;-42
2022/01/19 07:15:36;;;;;;;40.78;18.58;;;27.60;51.10;;;;;;5064178;28;20290;-42
2022/01/19 07:18:07;;;;;;;41.65;18.55;;;27.70;51.10;;;;;;5064961;28;20740;-45
2022/01/19 07:20:38;;;;;;;37.03;17.88;;;27.70;51.10;;;;;;5062820;28;20226;-43
2022/01/19 07:23:08;;;;;;;41.13;18.42;;;27.70;51.00;;;;;;5062507;28;20203;-42
2022/01/19 07:25:39;;;;;;;33.25;16.65;;;27.70;51.00;;;;;;5064246;28;20774;-43
2022/01/19 07:28:11;;;;;;;39.72;17.00;;;27.60;51.00;;;;;;5062762;28;20990;-42
2022/01/19 07:30:43;;;;;;;37.72;16.75;;;27.60;50.90;;;;;;5061936;28;20211;-43
2022/01/19 07:33:14;;;;;;;34.33;16.38;;;27.70;50.90;;;;;;5064828;28;20290;-46
2022/01/19 07:35:45;;;;;;;35.15;17.10;;;27.60;50.80;;;;;;5066956;28;20615;-47
2022/01/19 07:38:16;;;;;;;37.65;16.27;;;27.60;50.90;;;;;;5068674;28;20286;-42
2022/01/19 07:40:47;;;;;;;34.28;16.52;;;27.60;50.80;;;;;;5050891;28;20210;-42
2022/01/19 07:43:17;;;;;;;32.97;15.20;;;27.60;50.80;;;;;;5067396;28;20298;-43
2022/01/19 07:45:49;;;;;;;31.83;15.35;;;27.60;50.80;;;;;;5068322;28;20795;-43
2022/01/19 07:48:20;;;;;;;29.65;15.02;;;27.60;50.80;;;;;;5067618;28;20301;-42
2022/01/19 07:50:51;;;;;;;33.40;15.55;;;27.60;50.70;;;;;;5065778;28;20285;-44
2022/01/19 07:53:21;;;;;;;34.90;15.50;;;27.60;50.70;;;;;;5067992;28;20191;-42
2022/01/19 07:55:53;;;;;;;30.00;14.40;;;27.60;50.80;;;;;;5067159;28;20277;-41
2022/01/19 07:58:24;;;;;;;32.05;15.05;;;27.50;50.70;;;;;;5067895;28;20213;-44
2022/01/19 08:00:56;;;;;;;32.88;14.65;;;27.50;50.70;;;;;;5066717;28;20219;-42
2022/01/19 08:03:27;;;;;;;28.77;14.90;;;27.50;50.80;;;;;;5066080;28;20321;-41
2022/01/19 08:05:57;;;;;;;28.30;13.90;;;27.50;50.90;;;;;;5068020;28;20291;-44
2022/01/19 08:08:28;;;;;;;27.85;14.75;;;27.50;50.80;;;;;;5066816;28;20326;-44
2022/01/19 08:10:58;;;;;;;26.88;13.50;;;27.50;50.90;;;;;;5068037;28;20328;-41
2022/01/19 08:13:29;;;;;;;26.92;13.55;;;27.40;50.80;;;;;;5067517;28;20692;-41
2022/01/19 08:16:01;;;;;;;27.38;13.35;;;27.40;50.80;;;;;;5065939;28;20221;-43
2022/01/19 08:18:31;;;;;;;22.88;12.50;;;27.40;50.80;;;;;;5067706;28;20205;-41
2022/01/19 08:21:03;;;;;;;21.95;12.13;;;27.40;50.80;;;;;;5067614;28;20307;-43
2022/01/19 08:23:35;;;;;;;26.08;12.52;;;27.40;50.80;;;;;;5067461;28;20675;-41
2022/01/19 08:26:06;;;;;;;22.98;12.23;;;27.40;50.90;;;;;;5067642;28;20191;-41
2022/01/19 08:28:36;;;;;;;22.38;11.63;;;27.40;50.90;;;;;;5067770;28;20310;-41
2022/01/19 08:31:09;;;;;;;24.63;11.63;;;27.30;50.80;;;;;;5067273;28;20610;-50
2022/01/19 08:33:39;;;;;;;22.42;11.90;;;27.30;50.80;;;;;;5066223;28;20302;-40
2022/01/19 08:36:10;;;;;;;19.10;10.60;;;27.30;50.80;;;;;;5067455;28;20290;-41
2022/01/19 08:38:42;;;;;;;21.02;11.70;;;27.30;50.90;;;;;;5066483;28;20285;-42
2022/01/19 08:41:12;;;;;;;21.88;11.52;;;27.30;50.90;;;;;;5067469;28;20202;-48
2022/01/19 08:43:43;;;;;;;23.15;11.43;;;27.20;50.90;;;;;;5064461;28;20335;-42
2022/01/19 08:46:15;;;;;;;19.50;11.07;;;27.20;50.90;;;;;;5066977;28;20971;-45
2022/01/19 08:48:46;;;;;;;17.13;9.80;;;27.20;50.90;;;;;;5065739;28;20310;-41
2022/01/19 08:51:16;;;;;;;19.98;10.90;;;27.20;50.90;;;;;;5064755;28;20205;-41
2022/01/19 08:53:47;;;;;;;21.27;10.30;;;27.20;51.00;;;;;;5066526;28;20340;-41
2022/01/19 08:56:17;;;;;;;15.40;9.73;;;27.10;51.00;;;;;;5065085;28;20281;-42
2022/01/19 08:58:48;;;;;;;15.93;10.02;;;27.20;51.10;;;;;;5066676;28;20206;-41
2022/01/19 09:01:20;;;;;;;19.35;9.82;;;27.10;51.00;;;;;;5067399;28;20286;-44
2022/01/19 09:03:51;;;;;;;18.98;10.65;;;27.10;51.10;;;;;;5065843;28;20581;-45
2022/01/19 09:06:22;;;;;;;19.38;9.40;;;27.10;51.10;;;;;;5066729;28;20302;-44
2022/01/19 09:08:53;;;;;;;18.88;9.95;;;27.00;51.10;;;;;;5065795;28;20669;-41
2022/01/19 09:11:23;;;;;;;15.00;8.82;;;27.00;51.10;;;;;;5065114;28;20190;-44
2022/01/19 09:13:54;;;;;;;17.58;9.43;;;27.00;51.20;;;;;;5066505;28;20211;-40
2022/01/19 09:16:26;;;;;;;17.83;9.07;;;27.00;51.30;;;;;;5064260;28;20283;-42
2022/01/19 09:18:57;;;;;;;14.93;8.38;;;27.00;51.20;;;;;;5064705;28;20642;-42
2022/01/19 09:21:27;;;;;;;17.20;8.63;;;26.90;51.20;;;;;;5064120;28;20662;-41
2022/01/19 09:23:58;;;;;;;12.90;7.70;;;26.90;51.20;;;;;;5065322;28;20665;-41
2022/01/19 09:26:30;;;;;;;14.38;7.47;;;26.90;51.20;;;;;;5065266;28;20273;-41
2022/01/19 09:29:00;;;;;;;12.55;7.78;;;26.90;51.20;;;;;;5064921;28;20298;-42
2022/01/19 09:31:34;;;;;;;15.80;7.85;;;26.90;51.20;;;;;;5065215;28;20318;-41
2022/01/19 09:34:08;;;;;;;13.85;8.00;;;26.80;51.80;;;;;;5066569;28;20219;-41
2022/01/19 09:36:44;;;;;;;13.55;8.00;;;26.80;51.20;;;;;;5064717;28;20198;-43
2022/01/19 09:39:16;;;;;;;10.85;7.05;;;26.80;51.20;;;;;;5065385;28;20283;-44
2022/01/19 09:41:48;;;;;;;13.10;7.28;;;26.80;51.20;;;;;;5065652;28;20282;-48
2022/01/19 09:44:19;;;;;;;12.90;7.25;;;26.70;51.20;;;;;;5064903;28;20233;-41
2022/01/19 09:46:52;;;;;;;13.32;7.00;;;26.70;51.30;;;;;;5064181;28;20289;-41
2022/01/19 09:49:24;;;;;;;12.65;6.28;;;26.60;51.20;;;;;;5064049;28;20198;-43
2022/01/19 09:51:56;;;;;;;11.32;6.43;;;26.60;51.30;;;;;;5065430;28;20265;-44
2022/01/19 09:54:29;;;;;;;10.48;6.50;;;26.60;51.30;;;;;;5065189;28;20214;-41
2022/01/19 09:57:00;;;;;;;12.98;6.75;;;26.50;51.20;;;;;;5063199;28;20199;-43
2022/01/19 09:59:30;;;;;;;13.82;6.85;;;26.50;51.20;;;;;;5064985;28;20230;-41
2022/01/19 10:02:06;;;;;;;13.02;6.45;;;26.50;51.20;;;;;;5065862;28;20273;-49
2022/01/19 10:04:38;;;;;;;8.80;5.82;;;26.40;51.20;;;;;;5064520;28;20338;-43
2022/01/19 10:07:20;;;;;;;10.38;6.35;;;26.40;51.20;;;;;;5064436;28;20309;-48
2022/01/19 10:09:56;;;;;;;8.52;5.57;;;26.40;51.20;;;;;;5065121;28;20252;-41
2022/01/19 10:18:21;;;;;;;9.85;5.32;;;26.30;51.30;;;;;;5066568;28;20249;-41
2022/01/19 10:21:08;;;;;;;9.02;5.50;;;26.20;51.20;;;;;;5063251;28;20222;-43
2022/01/19 10:23:41;;;;;;;8.63;5.53;;;26.20;51.30;;;;;;5064640;28;21222;-45
2022/01/19 10:26:14;;;;;;;7.93;4.82;;;26.20;51.30;;;;;;5064491;28;20187;-42
2022/01/19 10:29:03;;;;;;;8.60;5.43;;;26.10;51.30;;;;;;5063129;28;20241;-42
2022/01/19 10:31:35;;;;;;;8.90;5.05;;;26.10;51.30;;;;;;5064090;28;20217;-42
2022/01/19 10:34:18;;;;;;;7.63;5.07;;;26.10;51.40;;;;;;5063796;28;20653;-42
2022/01/19 10:36:50;;;;;;;8.23;5.20;;;26.10;51.40;;;;;;5063369;28;20290;-55
2022/01/19 10:39:22;;;;;;;8.95;5.07;;;26.00;51.40;;;;;;5064314;28;20218;-44
2022/01/19 10:42:06;;;;;;;7.90;4.88;;;26.00;51.40;;;;;;5064459;28;20194;-41
2022/01/19 10:44:38;;;;;;;7.65;4.88;;;25.90;51.30;;;;;;5062834;28;20309;-41
2022/01/19 10:47:10;;;;;;;7.78;5.00;;;25.90;51.30;;;;;;5064306;28;20190;-42
2022/01/19 10:49:56;;;;;;;7.55;4.50;;;25.90;51.40;;;;;;5063096;28;20195;-42
2022/01/19 10:52:32;;;;;;;9.10;5.07;;;25.80;51.40;;;;;;5063227;28;20281;-46
2022/01/19 10:55:04;;;;;;;8.38;4.68;;;25.80;51.40;;;;;;5062972;28;20297;-50
2022/01/19 10:57:35;;;;;;;7.15;4.53;;;25.80;51.40;;;;;;5061836;28;20838;-42
2022/01/19 11:00:20;;;;;;;7.28;4.32;;;25.80;51.40;;;;;;5064646;28;20282;-43
2022/01/19 11:02:53;;;;;;;7.18;4.40;;;25.70;51.50;;;;;;5054129;28;20290;-41
2022/01/19 11:05:46;;;;;;;5.85;3.60;;;25.70;51.50;;;;;;5065660;28;20318;-46
2022/01/19 11:08:17;;;;;;;5.47;3.92;;;25.60;51.40;;;;;;5061676;28;20311;-47
2022/01/19 11:10:49;;;;;;;6.88;4.13;;;25.60;51.50;;;;;;5063062;28;20279;-43
2022/01/19 11:13:28;;;;;;;5.60;3.60;;;25.60;51.50;;;;;;5069518;28;20282;-48
2022/01/19 11:15:59;;;;;;;5.65;3.95;;;25.60;51.50;;;;;;5069440;28;20195;-47
2022/01/19 11:18:32;;;;;;;4.93;3.90;;;25.60;51.50;;;;;;5070400;28;20714;-47
2022/01/19 11:21:08;;;;;;;5.47;3.60;;;25.50;51.50;;;;;;5070931;28;20195;-48
2022/01/19 11:23:49;;;;;;;5.43;3.72;;;25.50;51.50;;;;;;5062173;28;20225;-44
2022/01/19 11:26:22;;;;;;;5.90;3.95;;;25.50;51.50;;;;;;5065088;28;20226;-44
2022/01/19 11:28:53;;;;;;;6.18;3.30;;;25.40;51.50;;;;;;5070272;28;20656;-42
2022/01/19 11:31:39;;;;;;;5.20;3.13;;;25.40;51.60;;;;;;5070030;28;20199;-50
2022/01/19 11:34:09;;;;;;;4.28;3.40;;;25.40;51.60;;;;;;5070154;28;20760;-41
2022/01/19 11:36:44;;;;;;;6.25;3.58;;;25.30;51.50;;;;;;5068995;28;20281;-48
2022/01/19 11:39:17;;;;;;;6.30;3.38;;;25.30;51.60;;;;;;5066843;28;20222;-42
2022/01/19 11:41:50;;;;;;;5.45;3.22;;;25.30;51.60;;;;;;5056729;28;20713;-46
2022/01/19 11:44:38;;;;;;;4.90;3.13;;;25.30;51.60;;;;;;5057717;28;20302;-46
2022/01/19 11:47:24;;;;;;;4.75;3.10;;;25.20;51.60;;;;;;5069887;28;20273;-41
2022/01/19 11:49:57;;;;;;;3.95;2.45;;;25.20;51.60;;;;;;5068445;28;20286;-42
2022/01/19 11:52:53;;;;;;;4.68;3.13;;;25.10;51.50;;;;;;5057468;28;20275;-51
2022/01/19 11:55:25;;;;;;;5.47;3.50;;;25.20;51.70;;;;;;5070038;28;20253;-43
2022/01/19 11:58:17;;;;;;;5.00;3.05;;;25.10;51.60;;;;;;5069837;28;20277;-53
2022/01/19 12:00:49;;;;;;;4.63;2.55;;;25.10;51.60;;;;;;5070415;28;20207;-49
2022/01/19 12:03:28;;;;;;;3.85;2.90;;;25.10;51.70;;;;;;5069660;28;20281;-42
2022/01/19 12:06:00;;;;;;;4.90;3.28;;;25.00;51.60;;;;;;5069950;28;20233;-45
2022/01/19 12:08:38;;;;;;;3.83;2.75;;;25.00;51.70;;;;;;5069908;28;20306;-41
2022/01/19 12:11:18;;;;;;;4.13;2.58;;;25.00;51.70;;;;;;5055544;28;20253;-42
2022/01/19 12:14:07;;;;;;;3.45;2.78;;;24.90;51.70;;;;;;5070231;28;20639;-41
2022/01/19 12:16:54;;;;;;;4.72;2.78;;;24.90;51.70;;;;;;5059400;28;20655;-44
2022/01/19 12:19:27;;;;;;;3.60;2.35;;;24.90;51.70;;;;;;5055593;28;20268;-46
2022/01/19 12:22:05;;;;;;;3.53;2.45;;;24.90;51.80;;;;;;5069971;28;20677;-44
2022/01/19 12:24:41;;;;;;;3.47;2.53;;;24.80;51.70;;;;;;5067731;28;20219;-41
2022/01/19 12:27:25;;;;;;;4.88;2.60;;;24.80;51.70;;;;;;5069103;28;20244;-48
2022/01/19 12:30:10;;;;;;;4.10;2.95;;;24.80;51.70;;;;;;5054136;28;20210;-42
2022/01/19 12:32:52;;;;;;;4.47;2.58;;;24.70;51.70;;;;;;5067614;28;20706;-43
2022/01/19 12:35:35;;;;;;;3.17;2.20;;;24.70;51.80;;;;;;5069727;28;20297;-49
2022/01/19 12:38:08;;;;;;;2.50;2.28;;;24.70;51.80;;;;;;5054404;28;20418;-41
2022/01/19 12:40:57;;;;;;;3.45;2.55;;;24.70;51.80;;;;;;5070257;28;20689;-48
2022/01/19 12:43:36;;;;;;;3.40;2.30;;;24.70;51.90;;;;;;5053969;28;20225;-42
2022/01/19 12:46:10;;;;;;;3.25;2.10;;;24.60;51.80;;;;;;5056678;28;20286;-52
2022/01/19 12:48:48;;;;;;;2.88;2.25;;;24.60;51.80;;;;;;5070437;28;20224;-50
2022/01/19 12:51:39;;;;;;;4.05;2.50;;;24.60;51.80;;;;;;5053432;28;20192;-48
2022/01/19 12:54:12;;;;;;;2.72;2.10;;;24.50;51.80;;;;;;5054021;28;20226;-42
2022/01/19 12:56:56;;;;;;;3.85;2.15;;;24.50;51.80;;;;;;5070328;28;20734;-44
2022/01/19 12:59:26;;;;;;;2.67;1.90;;;24.50;51.90;;;;;;5070020;28;20285;-45
2022/01/19 13:01:57;;;;;;;3.10;2.05;;;24.50;51.90;;;;;;5060919;28;20282;-47
2022/01/19 13:04:32;;;;;;;2.92;2.05;;;24.40;51.90;;;;;;5059449;28;20303;-41
2022/01/19 13:07:17;;;;;;;2.53;1.70;;;24.40;51.90;;;;;;5068650;28;20233;-46
2022/01/19 13:10:09;;;;;;;3.05;1.85;;;24.40;51.90;;;;;;5054041;28;20318;-44
2022/01/19 13:12:49;;;;;;;3.55;2.25;;;24.40;51.90;;;;;;5068582;28;20647;-51
2022/01/19 13:15:19;;;;;;;2.40;1.67;;;24.30;51.90;;;;;;5052620;28;20242;-45
2022/01/19 13:17:51;;;;;;;2.20;1.73;;;24.30;52.00;;;;;;5054955;28;20286;-43
2022/01/19 13:20:24;;;;;;;3.00;1.95;;;24.30;52.00;;;;;;5067262;28;20282;-47
2022/01/19 13:22:56;;;;;;;2.53;1.63;;;24.30;52.00;;;;;;5068506;28;20256;-42
2022/01/19 13:25:29;;;;;;;2.33;1.60;;;24.30;52.00;;;;;;5068278;28;20327;-42
2022/01/19 13:28:02;;;;;;;3.28;2.03;;;24.20;52.00;;;;;;5068256;28;20286;-45
2022/01/19 13:30:34;;;;;;;2.25;1.65;;;24.20;52.00;;;;;;5068165;28;20286;-46
2022/01/19 13:33:14;;;;;;;2.67;1.65;;;24.20;52.00;;;;;;5067482;28;20278;-51
2022/01/19 13:35:44;;;;;;;2.53;1.80;;;24.20;52.00;;;;;;5061085;28;20200;-45
2022/01/19 13:38:15;;;;;;;2.10;1.70;;;24.20;52.00;;;;;;5054239;28;20734;-42
2022/01/19 13:40:46;;;;;;;2.97;1.77;;;24.10;52.00;;;;;;5058140;28;20234;-41
2022/01/19 13:43:20;;;;;;;2.20;1.50;;;24.10;52.00;;;;;;5066029;28;20278;-43
2022/01/19 13:46:01;;;;;;;2.40;1.33;;;24.10;52.00;;;;;;5053839;28;20234;-42
2022/01/19 13:48:32;;;;;;;1.95;1.52;;;24.10;52.10;;;;;;5064292;28;20226;-43
2022/01/19 13:51:05;;;;;;;2.47;1.65;;;24.00;52.00;;;;;;5053598;28;20286;-46
2022/01/19 13:53:37;;;;;;;2.33;1.45;;;24.00;52.00;;;;;;5067593;28;20313;-41
2022/01/19 13:56:09;;;;;;;2.00;1.60;;;24.00;52.10;;;;;;5052027;28;20196;-41
2022/01/19 13:58:43;;;;;;;2.25;1.60;;;24.00;52.10;;;;;;5061370;28;20286;-44
2022/01/19 14:01:20;;;;;;;2.38;1.60;;;23.90;52.10;;;;;;5068151;28;20289;-45
2022/01/19 14:03:55;;;;;;;1.77;1.50;;;23.90;52.10;;;;;;5067244;28;20229;-43
2022/01/19 14:06:30;;;;;;;2.20;1.67;;;23.90;52.10;;;;;;5052664;28;20203;-42
2022/01/19 14:09:15;;;;;;;2.60;1.48;;;23.90;52.10;;;;;;5068081;28;20313;-41
2022/01/19 14:11:47;;;;;;;1.60;1.33;;;23.80;52.10;;;;;;5067828;28;20286;-54
2022/01/19 14:14:26;;;;;;;2.75;1.50;;;23.80;52.10;;;;;;5067616;28;20695;-46
2022/01/19 14:16:57;;;;;;;1.55;1.30;;;23.80;52.10;;;;;;5061605;28;20756;-51
2022/01/19 14:19:29;;;;;;;2.05;1.60;;;23.80;52.10;;;;;;5067261;28;20198;-42
2022/01/19 14:22:12;;;;;;;1.58;1.40;;;23.80;52.10;;;;;;5064197;28;20278;-44
2022/01/19 14:25:07;;;;;;;1.92;1.30;;;23.80;52.10;;;;;;5063458;28;20753;-41
2022/01/19 14:27:47;;;;;;;1.70;1.08;;;23.70;52.10;;;;;;5042009;28;20290;-46
2022/01/19 14:30:28;;;;;;;2.92;1.60;;;23.70;52.10;;;;;;5053430;28;20222;-49
2022/01/19 14:33:00;;;;;;;1.95;1.50;;;23.70;52.10;;;;;;5064158;28;20203;-52